createdAt,value
2019-04-10T00:05:23.901Z,11.30
2019-04-10T00:07:53.933Z,12.53
2019-04-10T00:10:23.613Z,13.90
2019-04-10T00:12:54.105Z,16.07
2019-04-10T00:15:24.369Z,14.63
2019-04-10T00:17:55.590Z,15.97
2019-04-10T00:20:26.670Z,16.07
2019-04-10T00:22:56.178Z,15.97
2019-04-10T00:25:26.515Z,16.13
2019-04-10T00:27:56.548Z,15.47
2019-04-10T00:30:27.089Z,14.63
2019-04-10T00:32:56.522Z,14.27
2019-04-10T00:35:26.268Z,15.10
2019-04-10T00:37:55.955Z,15.00
2019-04-10T00:40:25.780Z,15.63
2019-04-10T00:42:57.051Z,13.87
2019-04-10T00:45:27.416Z,14.90
2019-04-10T00:47:57.181Z,13.73
2019-04-10T00:50:28.395Z,14.10
2019-04-10T00:52:58.760Z,15.17
2019-04-10T00:55:28.804Z,15.23
2019-04-10T00:57:58.612Z,13.07
2019-04-10T01:00:28.773Z,13.53
2019-04-10T01:02:58.840Z,11.37
2019-04-10T01:05:28.366Z,13.07
2019-04-10T01:07:58.142Z,12.20
2019-04-10T01:10:28.486Z,12.67
2019-04-10T01:12:58.743Z,12.10
2019-04-10T01:15:28.849Z,12.83
2019-04-10T01:17:59.010Z,11.60
2019-04-10T01:20:29.344Z,11.43
2019-04-10T01:22:59.373Z,9.90
2019-04-10T01:25:30.177Z,11.03
2019-04-10T01:28:00.540Z,10.40
2019-04-10T01:30:30.565Z,9.37
2019-04-10T01:33:00.658Z,10.93
2019-04-10T01:35:30.518Z,10.37
2019-04-10T01:38:02.430Z,9.87
2019-04-10T01:40:31.450Z,9.20
2019-04-10T01:43:08.236Z,9.93
2019-04-10T01:45:33.474Z,9.57
2019-04-10T01:48:03.752Z,8.77
2019-04-10T01:50:34.783Z,8.87
2019-04-10T01:53:04.254Z,8.40
2019-04-10T01:55:34.351Z,9.10
2019-04-10T01:58:08.494Z,8.03
2019-04-10T02:00:39.583Z,8.13
2019-04-10T02:03:09.810Z,8.53
2019-04-10T02:05:39.257Z,9.23
2019-04-10T02:08:12.753Z,8.77
2019-04-10T02:10:40.529Z,8.70
2019-04-10T02:13:11.441Z,9.37
2019-04-10T02:15:41.879Z,9.53
2019-04-10T02:18:11.462Z,8.90
2019-04-10T02:20:41.176Z,8.27
2019-04-10T02:23:10.700Z,7.43
2019-04-10T02:25:41.095Z,8.70
2019-04-10T02:28:11.063Z,7.80
2019-04-10T02:30:43.116Z,8.00
2019-04-10T02:33:13.793Z,7.67
2019-04-10T02:35:43.483Z,7.60
2019-04-10T02:38:32.584Z,8.10
2019-04-10T02:40:45.564Z,8.57
2019-04-10T02:43:16.147Z,8.10
2019-04-10T02:45:46.982Z,8.20
2019-04-10T02:48:17.066Z,6.87
2019-04-10T02:50:46.836Z,8.23
2019-04-10T02:53:16.278Z,7.00
2019-04-10T02:55:47.363Z,7.23
2019-04-10T02:58:18.757Z,8.27
2019-04-10T03:00:48.805Z,7.03
2019-04-10T03:03:20.122Z,8.23
2019-04-10T03:05:51.024Z,7.60
2019-04-10T03:08:38.539Z,7.63
2019-04-10T03:10:59.040Z,7.10
2019-04-10T03:13:23.926Z,7.47
2019-04-10T03:15:53.830Z,7.03
2019-04-10T03:18:23.618Z,7.57
2019-04-10T03:20:54.321Z,7.67
2019-04-10T03:23:23.772Z,7.70
2019-04-10T03:25:53.530Z,7.57
2019-04-10T03:28:23.218Z,7.17
2019-04-10T03:30:53.847Z,7.07
2019-04-10T03:33:47.103Z,7.27
2019-04-10T03:36:13.939Z,6.67
2019-04-10T03:38:55.347Z,7.93
2019-04-10T03:41:14.375Z,7.43
2019-04-10T03:43:43.830Z,7.97
2019-04-10T03:46:13.269Z,7.73
2019-04-10T03:48:42.649Z,8.07
2019-04-10T03:51:12.350Z,7.60
2019-04-10T03:53:42.617Z,8.23
2019-04-10T03:56:12.431Z,7.83
2019-04-10T03:58:42.669Z,7.37
2019-04-10T04:01:14.396Z,7.10
2019-04-10T04:03:45.142Z,6.80
2019-04-10T04:06:15.450Z,7.53
2019-04-10T04:08:45.889Z,6.70
2019-04-10T04:11:20.162Z,8.20
2019-04-10T04:13:50.060Z,7.70
2019-04-10T04:16:19.540Z,7.53
2019-04-10T04:18:49.225Z,7.27
2019-04-10T04:21:19.671Z,6.77
2019-04-10T04:23:49.116Z,7.77
2019-04-10T04:26:19.062Z,7.47
2019-04-10T04:28:49.415Z,7.43
2019-04-10T04:31:19.305Z,7.80
2019-04-10T04:33:49.456Z,7.93
2019-04-10T04:36:20.376Z,8.17
2019-04-10T04:38:51.398Z,8.67
2019-04-10T04:41:28.930Z,8.70
2019-04-10T04:43:58.995Z,8.77
2019-04-10T04:46:28.717Z,8.73
2019-04-10T04:48:58.107Z,9.10
2019-04-10T04:51:27.769Z,8.77
2019-04-10T04:53:57.439Z,8.73
2019-04-10T04:56:28.135Z,8.97
2019-04-10T04:58:57.649Z,8.47
2019-04-10T05:01:27.552Z,8.53
2019-04-10T05:03:58.236Z,8.57
2019-04-10T05:06:27.768Z,8.33
2019-04-10T05:08:57.766Z,9.00
2019-04-10T05:11:27.192Z,8.60
2019-04-10T05:13:57.298Z,8.40
2019-04-10T05:16:27.479Z,8.80
2019-04-10T05:18:57.441Z,7.83
2019-04-10T05:21:27.610Z,7.97
2019-04-10T05:23:57.526Z,8.50
2019-04-10T05:26:27.754Z,7.10
2019-04-10T05:28:57.711Z,7.60
2019-04-10T05:31:27.791Z,7.50
2019-04-10T05:33:57.471Z,7.40
2019-04-10T05:36:26.993Z,7.07
2019-04-10T05:38:57.613Z,6.87
2019-04-10T05:41:27.989Z,7.30
2019-04-10T05:43:58.527Z,8.03
2019-04-10T05:46:28.411Z,7.43
2019-04-10T05:48:58.146Z,6.40
2019-04-10T05:51:28.950Z,7.30
2019-04-10T05:54:04.676Z,7.20
2019-04-10T05:56:42.706Z,7.17
2019-04-10T05:59:13.598Z,7.83
2019-04-10T06:01:45.638Z,7.77
2019-04-10T06:04:15.332Z,7.80
2019-04-10T06:06:44.689Z,7.07
2019-04-10T06:09:14.323Z,6.97
2019-04-10T06:11:45.603Z,7.23
2019-04-10T06:14:15.747Z,7.37
2019-04-10T06:16:45.303Z,6.80
2019-04-10T06:19:15.723Z,7.13
2019-04-10T06:21:46.217Z,6.03
2019-04-10T06:24:16.230Z,6.87
2019-04-10T06:26:46.057Z,6.27
2019-04-10T06:29:15.597Z,6.17
2019-04-10T06:31:45.578Z,6.90
2019-04-10T06:34:17.560Z,6.50
2019-04-10T06:36:46.104Z,7.40
2019-04-10T06:39:16.436Z,8.17
2019-04-10T06:41:46.766Z,7.23
2019-04-10T06:44:17.383Z,6.60
2019-04-10T06:46:48.555Z,7.50
2019-04-10T06:49:18.410Z,8.13
2019-04-10T06:51:49.298Z,8.10
2019-04-10T06:54:18.802Z,7.97
2019-04-10T06:56:48.865Z,8.27
2019-04-10T06:59:18.644Z,8.90
2019-04-10T07:01:52.803Z,9.20
2019-04-10T07:04:24.219Z,8.60
2019-04-10T07:06:58.617Z,10.67
2019-04-10T07:09:25.389Z,10.93
2019-04-10T07:11:58.334Z,11.80
2019-04-10T07:14:24.979Z,11.63
2019-04-10T07:16:54.909Z,11.80
2019-04-10T07:19:24.850Z,12.33
2019-04-10T07:21:55.258Z,13.73
2019-04-10T07:24:25.037Z,12.07
2019-04-10T07:26:55.265Z,11.97
2019-04-10T07:29:27.681Z,10.93
2019-04-10T07:31:56.875Z,11.63
2019-04-10T07:34:29.739Z,12.07
2019-04-10T07:36:58.121Z,11.47
2019-04-10T07:39:30.390Z,10.37
2019-04-10T07:41:59.921Z,9.43
2019-04-10T07:44:29.354Z,9.20
2019-04-10T07:47:00.736Z,8.60
2019-04-10T07:49:31.423Z,9.37
2019-04-10T07:52:02.484Z,8.27
2019-04-10T07:54:33.097Z,8.00
2019-04-10T07:57:02.688Z,8.80
2019-04-10T07:59:33.315Z,8.67
2019-04-10T08:02:05.511Z,9.07
2019-04-10T08:04:35.318Z,9.87
2019-04-10T08:07:05.289Z,9.33
2019-04-10T08:09:35.617Z,8.43
2019-04-10T08:12:05.238Z,9.87
2019-04-10T08:14:35.736Z,10.00
2019-04-10T08:17:05.926Z,10.67
2019-04-10T08:19:36.990Z,11.17
2019-04-10T08:22:08.321Z,12.00
2019-04-10T08:24:38.665Z,11.33
2019-04-10T08:27:10.254Z,11.47
2019-04-10T08:29:41.257Z,11.33
2019-04-10T08:32:11.865Z,10.80
2019-04-10T08:34:42.123Z,10.47
2019-04-10T08:37:12.374Z,11.23
2019-04-10T08:39:45.743Z,11.10
2019-04-10T08:42:13.143Z,9.90
2019-04-10T08:44:42.589Z,9.63
2019-04-10T08:47:12.835Z,9.40
2019-04-10T08:49:43.246Z,8.73
2019-04-10T08:52:13.806Z,7.80
2019-04-10T08:54:44.623Z,7.73
2019-04-10T08:57:14.573Z,7.23
2019-04-10T08:59:44.518Z,6.53
2019-04-10T09:02:15.225Z,6.53
2019-04-10T09:04:44.905Z,7.87
2019-04-10T09:07:14.476Z,7.87
2019-04-10T09:09:44.228Z,7.50
2019-04-10T09:12:14.034Z,7.90
2019-04-10T09:14:43.797Z,6.93
2019-04-10T09:17:13.320Z,7.53
2019-04-10T09:19:42.683Z,6.50
2019-04-10T09:22:14.130Z,6.97
2019-04-10T09:24:44.619Z,6.43
2019-04-10T09:27:15.050Z,6.07
2019-04-10T09:29:44.597Z,6.03
2019-04-10T09:32:14.647Z,6.00
2019-04-10T09:34:46.436Z,6.40
2019-04-10T09:37:15.666Z,6.90
2019-04-10T09:39:45.128Z,6.43
2019-04-10T09:42:14.917Z,6.37
2019-04-10T09:44:44.698Z,5.90
2019-04-10T09:47:14.245Z,6.63
2019-04-10T09:49:46.730Z,6.47
2019-04-10T09:52:15.558Z,6.33
2019-04-10T09:54:44.972Z,5.87
2019-04-10T09:57:15.397Z,6.83
2019-04-10T09:59:46.200Z,6.27
2019-04-10T10:02:17.566Z,6.27
2019-04-10T10:04:48.082Z,6.37
2019-04-10T10:07:18.617Z,6.93
2019-04-10T10:09:49.252Z,6.00
2019-04-10T10:12:20.109Z,6.77
2019-04-10T10:14:49.690Z,6.50
2019-04-10T10:17:20.314Z,6.77
2019-04-10T10:19:50.199Z,6.63
2019-04-10T10:22:21.006Z,6.00
2019-04-10T10:24:51.003Z,6.60
2019-04-10T10:27:20.474Z,7.20
2019-04-10T10:29:53.082Z,6.57
2019-04-10T10:32:21.388Z,6.83
2019-04-10T10:34:51.181Z,6.87
2019-04-10T10:37:22.091Z,6.93
2019-04-10T10:39:52.766Z,6.60
2019-04-10T10:42:23.487Z,6.90
2019-04-10T10:44:52.988Z,6.90
2019-04-10T10:47:22.374Z,7.10
2019-04-10T10:49:52.648Z,6.80
2019-04-10T10:52:22.293Z,6.97
2019-04-10T10:54:51.850Z,7.27
2019-04-10T10:57:22.684Z,6.93
2019-04-10T10:59:53.550Z,7.40
2019-04-10T11:02:23.096Z,6.70
2019-04-10T11:04:53.862Z,6.70
2019-04-10T11:07:24.352Z,7.40
2019-04-10T11:09:54.406Z,7.00
2019-04-10T11:12:24.175Z,7.03
2019-04-10T11:14:54.034Z,6.20
2019-04-10T11:17:23.916Z,7.07
2019-04-10T11:19:53.356Z,7.87
2019-04-10T11:22:25.637Z,7.30
2019-04-10T11:24:55.686Z,7.10
2019-04-10T11:27:25.328Z,7.10
2019-04-10T11:29:55.073Z,7.20
2019-04-10T11:32:26.406Z,7.60
2019-04-10T11:34:56.648Z,7.03
2019-04-10T11:37:35.015Z,7.20
2019-04-10T11:39:58.593Z,7.60
2019-04-10T11:42:28.960Z,8.43
2019-04-10T11:44:59.481Z,7.37
2019-04-10T11:47:29.194Z,6.60
2019-04-10T11:50:01.598Z,7.40
2019-04-10T11:55:10.579Z,7.75
2019-04-10T11:57:33.143Z,8.03
2019-04-10T12:00:04.350Z,8.25
2019-04-10T12:02:34.585Z,7.58
2019-04-10T12:05:10.908Z,7.55
2019-04-10T12:08:01.911Z,8.15
2019-04-10T12:12:38.928Z,7.80
2019-04-10T12:15:08.617Z,7.78
2019-04-10T12:17:38.204Z,8.18
2019-04-10T12:20:08.899Z,8.35
2019-04-10T12:22:38.729Z,8.08
2019-04-10T12:25:08.305Z,8.30
2019-04-10T12:27:39.008Z,8.08
2019-04-10T12:30:09.272Z,7.95
2019-04-10T12:32:39.280Z,8.13
2019-04-10T12:35:08.850Z,8.45
2019-04-10T12:37:39.180Z,8.20
2019-04-10T12:40:09.855Z,7.87
2019-04-10T12:42:40.592Z,8.15
2019-04-10T12:45:11.544Z,8.50
2019-04-10T12:47:41.995Z,8.28
2019-04-10T12:50:12.149Z,7.53
2019-04-10T12:52:42.698Z,7.70
2019-04-10T12:55:12.643Z,7.92
2019-04-10T12:57:42.059Z,7.85
2019-04-10T13:00:15.979Z,7.12
2019-04-10T13:02:46.893Z,7.40
2019-04-10T13:05:16.807Z,7.25
2019-04-10T13:07:47.520Z,7.30
2019-04-10T13:10:18.325Z,8.15
2019-04-10T13:12:47.857Z,8.05
2019-04-10T13:15:17.437Z,7.73
2019-04-10T13:17:46.994Z,7.90
2019-04-10T13:20:17.654Z,8.30
2019-04-10T13:22:48.628Z,8.60
2019-04-10T13:25:18.480Z,8.08
2019-04-10T13:27:48.478Z,7.40
2019-04-10T13:30:18.749Z,8.07
2019-04-10T13:32:48.305Z,7.70
2019-04-10T13:35:18.016Z,7.85
2019-04-10T13:37:47.631Z,7.47
2019-04-10T13:40:17.416Z,8.50
2019-04-10T13:42:47.441Z,8.03
2019-04-10T13:45:19.390Z,7.33
2019-04-10T13:47:49.662Z,7.90
2019-04-10T13:50:19.583Z,8.98
2019-04-10T13:52:52.581Z,8.90
2019-04-10T13:55:22.203Z,9.38
2019-04-10T13:57:52.906Z,8.80
2019-04-10T14:00:35.623Z,8.03
2019-04-10T14:03:05.941Z,10.50
2019-04-10T14:05:35.416Z,9.20
2019-04-10T14:08:06.266Z,10.05
2019-04-10T14:10:38.512Z,10.72
2019-04-10T14:13:07.480Z,7.47
2019-04-10T14:15:37.417Z,6.83
2019-04-10T14:18:08.260Z,7.35
2019-04-10T14:20:37.887Z,7.83
2019-04-10T14:23:15.173Z,7.28
2019-04-10T14:26:02.498Z,7.75
2019-04-10T14:28:33.265Z,7.47
2019-04-10T14:31:07.657Z,8.03
2019-04-10T14:33:37.954Z,7.78
2019-04-10T14:36:07.627Z,7.15
2019-04-10T14:38:39.031Z,7.65
2019-04-10T14:41:09.440Z,8.43
2019-04-10T14:43:39.739Z,7.03
2019-04-10T14:46:12.369Z,6.70
2019-04-10T14:48:42.478Z,7.63
2019-04-10T14:51:12.764Z,7.22
2019-04-10T14:53:43.612Z,7.95
2019-04-10T14:56:13.709Z,7.33
2019-04-10T14:58:43.150Z,7.53
2019-04-10T15:01:13.661Z,8.80
2019-04-10T15:03:44.544Z,7.60
2019-04-10T15:06:15.339Z,8.53
2019-04-10T15:08:46.019Z,8.07
2019-04-10T15:11:16.262Z,7.27
2019-04-10T15:13:45.779Z,7.23
2019-04-10T15:16:16.690Z,7.17
2019-04-10T15:18:46.234Z,6.70
2019-04-10T15:21:15.694Z,6.03
2019-04-10T15:23:45.070Z,6.80
2019-04-10T15:26:15.488Z,6.40
2019-04-10T15:28:45.397Z,7.00
2019-04-10T15:31:15.215Z,6.60
2019-04-10T15:33:44.598Z,6.70
2019-04-10T15:36:14.073Z,6.97
2019-04-10T15:38:44.354Z,6.33
2019-04-10T15:41:14.680Z,6.60
2019-04-10T15:43:45.481Z,7.10
2019-04-10T15:46:15.053Z,6.20
2019-04-10T15:48:44.517Z,6.67
2019-04-10T15:51:14.182Z,6.77
2019-04-10T15:53:45.021Z,6.67
2019-04-10T15:56:15.890Z,6.57
2019-04-10T15:58:45.855Z,6.30
2019-04-10T16:01:18.588Z,6.23
2019-04-10T16:03:48.079Z,6.57
2019-04-10T16:06:17.857Z,6.50
2019-04-10T16:08:48.190Z,6.47
2019-04-10T16:11:36.209Z,6.63
2019-04-10T16:14:16.939Z,6.37
2019-04-10T16:16:54.944Z,6.27
2019-04-10T16:19:39.733Z,6.43
2019-04-10T16:22:25.871Z,6.60
2019-04-10T16:24:57.505Z,6.80
2019-04-10T16:27:27.069Z,6.40
2019-04-10T16:29:56.664Z,6.83
2019-04-10T16:32:26.643Z,7.30
2019-04-10T16:34:56.846Z,7.23
2019-04-10T16:37:26.476Z,7.40
2019-04-10T16:40:00.517Z,6.73
2019-04-10T16:42:27.721Z,7.37
2019-04-10T16:44:57.695Z,8.40
2019-04-10T16:47:28.264Z,7.10
2019-04-10T16:49:59.227Z,7.17
2019-04-10T16:52:29.190Z,7.27
2019-04-10T16:54:59.702Z,6.97
2019-04-10T16:57:29.581Z,8.13
2019-04-10T16:59:59.231Z,8.07
2019-04-10T17:02:28.698Z,7.87
2019-04-10T17:04:58.569Z,7.70
2019-04-10T17:07:28.117Z,6.93
2019-04-10T17:10:04.399Z,7.00
2019-04-10T17:12:29.634Z,7.53
2019-04-10T17:14:59.580Z,7.27
2019-04-10T17:17:30.471Z,7.37
2019-04-10T17:20:00.671Z,7.00
2019-04-10T17:22:37.331Z,7.47
2019-04-10T17:25:02.410Z,7.80
2019-04-10T17:27:32.071Z,7.40
2019-04-10T17:30:01.625Z,7.07
2019-04-10T17:32:31.465Z,7.10
2019-04-10T17:35:01.282Z,7.30
2019-04-10T17:37:31.854Z,6.87
2019-04-10T17:40:02.102Z,6.70
2019-04-10T17:42:32.461Z,6.90
2019-04-10T17:45:02.996Z,6.67
2019-04-10T17:47:33.401Z,6.60
2019-04-10T17:50:03.679Z,7.07
2019-04-10T17:52:35.706Z,6.40
2019-04-10T17:55:05.574Z,6.10
2019-04-10T17:57:38.904Z,7.13
2019-04-10T18:00:15.206Z,6.97
2019-04-10T18:02:44.708Z,7.10
2019-04-10T18:05:14.823Z,6.77
2019-04-10T18:07:44.285Z,7.53
2019-04-10T18:10:14.073Z,7.00
2019-04-10T18:12:43.951Z,7.30
2019-04-10T18:15:13.574Z,5.93
2019-04-10T18:17:43.546Z,7.10
2019-04-10T18:20:13.777Z,6.63
2019-04-10T18:22:44.849Z,6.57
2019-04-10T18:25:15.824Z,6.80
2019-04-10T18:27:46.860Z,6.17
2019-04-10T18:30:17.029Z,6.20
2019-04-10T18:32:47.557Z,6.43
2019-04-10T18:35:18.385Z,5.73
2019-04-10T18:38:23.699Z,5.23
2019-04-10T18:40:58.501Z,5.80
2019-04-10T18:43:24.342Z,6.40
2019-04-10T18:46:06.231Z,6.37
2019-04-10T18:48:26.971Z,6.10
2019-04-10T18:50:57.272Z,5.77
2019-04-10T18:53:26.841Z,5.03
2019-04-10T18:55:56.885Z,5.37
2019-04-10T18:58:29.684Z,5.70
2019-04-10T19:01:34.762Z,5.43
2019-04-10T19:04:12.523Z,5.13
2019-04-10T19:06:51.268Z,4.90
2019-04-10T19:09:27.346Z,5.13
2019-04-10T19:11:54.546Z,4.90
2019-04-10T19:14:24.759Z,5.23
2019-04-10T19:16:55.241Z,5.33
2019-04-10T19:19:25.984Z,5.13
2019-04-10T19:21:56.077Z,5.53
2019-04-10T19:24:28.064Z,5.60
2019-04-10T19:26:58.015Z,4.90
2019-04-10T19:29:27.700Z,5.60
2019-04-10T19:32:01.535Z,4.73
2019-04-10T19:34:31.684Z,5.03
2019-04-10T19:37:01.316Z,4.80
2019-04-10T19:39:30.686Z,4.80
2019-04-10T19:42:01.430Z,5.00
2019-04-10T19:44:31.093Z,5.10
2019-04-10T19:47:01.977Z,5.20
2019-04-10T19:49:32.830Z,5.00
2019-04-10T19:52:03.029Z,4.87
2019-04-10T19:54:33.234Z,4.67
2019-04-10T19:57:02.806Z,4.53
2019-04-10T19:59:32.157Z,4.77
2019-04-10T20:02:02.447Z,4.60
2019-04-10T20:04:32.520Z,5.13
2019-04-10T20:07:02.750Z,4.87
2019-04-10T20:09:32.642Z,5.03
2019-04-10T20:12:02.493Z,4.50
2019-04-10T20:14:32.599Z,4.63
2019-04-10T20:17:02.536Z,4.90
2019-04-10T20:19:32.755Z,4.87
2019-04-10T20:22:02.621Z,5.00
2019-04-10T20:24:32.612Z,5.00
2019-04-10T20:27:02.059Z,4.90
2019-04-10T20:29:31.505Z,4.73
2019-04-10T20:32:01.722Z,5.03
2019-04-10T20:34:31.626Z,4.87
2019-04-10T20:37:06.146Z,4.73
2019-04-10T20:39:32.152Z,5.97
2019-04-10T20:42:02.538Z,4.70
2019-04-10T20:44:32.583Z,4.43
2019-04-10T20:47:02.538Z,4.70
2019-04-10T20:49:32.401Z,4.83
2019-04-10T20:52:02.153Z,4.40
2019-04-10T20:54:31.581Z,4.97
2019-04-10T20:57:01.190Z,4.77
2019-04-10T20:59:31.120Z,4.63
2019-04-10T21:02:00.600Z,4.33
2019-04-10T21:04:30.029Z,4.73
2019-04-10T21:07:00.727Z,4.70
2019-04-10T21:09:30.187Z,4.43
2019-04-10T21:12:06.763Z,4.47
2019-04-10T21:14:31.760Z,4.40
2019-04-10T21:17:02.319Z,4.30
2019-04-10T21:19:33.342Z,4.60
2019-04-10T21:22:03.787Z,4.77
2019-04-10T21:24:33.609Z,4.93
2019-04-10T21:27:03.586Z,4.67
2019-04-10T21:29:50.547Z,4.50
2019-04-10T21:32:34.587Z,4.47
2019-04-10T21:35:05.621Z,5.20
2019-04-10T21:37:35.496Z,4.27
2019-04-10T21:40:05.999Z,4.60
2019-04-10T21:42:36.983Z,5.47
2019-04-10T21:45:07.413Z,4.57
2019-04-10T21:47:37.646Z,4.77
2019-04-10T21:50:08.859Z,4.90
2019-04-10T21:52:39.283Z,4.63
2019-04-10T21:55:08.766Z,5.17
2019-04-10T21:57:38.443Z,5.47
2019-04-10T22:00:10.091Z,5.03
2019-04-10T22:02:40.044Z,5.33
2019-04-10T22:05:10.216Z,6.07
2019-04-10T22:07:57.174Z,5.17
2019-04-10T22:10:32.212Z,5.07
2019-04-10T22:13:02.164Z,5.37
2019-04-10T22:15:57.515Z,5.27
2019-04-10T22:18:27.464Z,5.00
2019-04-10T22:20:57.227Z,5.33
2019-04-10T22:23:28.681Z,5.17
2019-04-10T22:25:58.501Z,5.50
2019-04-10T22:28:28.766Z,5.10
2019-04-10T22:30:58.563Z,5.40
2019-04-10T22:33:28.314Z,5.20
2019-04-10T22:35:58.230Z,6.30
2019-04-10T22:38:27.620Z,5.30
2019-04-10T22:40:57.991Z,5.40
2019-04-10T22:43:28.081Z,5.30
2019-04-10T22:45:57.589Z,5.97
2019-04-10T22:48:27.288Z,5.83
2019-04-10T22:50:56.846Z,6.30
2019-04-10T22:53:26.298Z,5.57
2019-04-10T22:55:56.389Z,5.70
2019-04-10T22:58:26.799Z,6.13
2019-04-10T23:00:56.297Z,5.67
2019-04-10T23:03:26.456Z,6.20
2019-04-10T23:05:56.496Z,6.57
2019-04-10T23:08:27.299Z,6.23
2019-04-10T23:10:57.358Z,6.27
2019-04-10T23:13:27.113Z,6.60
2019-04-10T23:15:57.741Z,6.67
2019-04-10T23:18:27.723Z,6.17
2019-04-10T23:20:58.502Z,6.80
2019-04-10T23:23:28.052Z,6.13
2019-04-10T23:25:58.560Z,6.60
2019-04-10T23:28:28.002Z,6.53
2019-04-10T23:30:57.504Z,6.30
2019-04-10T23:33:28.131Z,6.93
2019-04-10T23:35:58.053Z,6.77
2019-04-10T23:38:27.818Z,6.80
2019-04-10T23:40:57.355Z,6.80
2019-04-10T23:43:27.383Z,6.87
2019-04-10T23:45:57.840Z,6.27
2019-04-10T23:48:27.280Z,5.77
2019-04-10T23:50:56.693Z,6.23
2019-04-10T23:53:26.672Z,6.93
2019-04-10T23:55:56.619Z,5.80
2019-04-10T23:58:26.376Z,6.73
